Terminal Aerodrome Forecast
Issued by NWS

Home | Current Version | Previous Version | Graphics & Text | Print | Product List | Glossary On
Versions: 1 2 3 4 5 6 7 8 9 10 11 12 13 14
000
FTUS43 KLSX 101100
TAFSUS
TAF
KSUS 101120Z 1012/1112 VRB03KT 6SM BR SCT250
     FM101300 08006KT P6SM SCT250
     FM110600 14006KT P6SM BKN250=

USA.gov is the U.S. government's official web portal to all federal, state and local government web resources and services.